Time;durP1;ratioP1;P1;durP2;ratioP2;P2;SDS_P1;SDS_P2;PMS_P1;PMS_P2;Temp;Humidity;BMP_temperature;BMP_pressure;BME280_temperature;BME280_humidity;BME280_pressure;Samples;Min_cycle;Max_cycle;Signal;HPM_P1;HPM_P2
2022/12/20 00:00:31;;;;;;;;;;;21.60;61.10;;;;;;1591606;73;1125;-70
2022/12/20 00:02:33;;;;;;;;;;;21.70;61.20;;;;;;1589448;73;788;-71
2022/12/20 00:04:35;;;;;;;;;;;21.60;61.10;;;;;;1594159;73;726;-70
2022/12/20 00:06:37;;;;;;;;;;;21.70;61.20;;;;;;1600023;73;706;-70
2022/12/20 00:08:39;;;;;;;;;;;21.60;61.20;;;;;;1599134;74;620;-71
2022/12/20 00:10:41;;;;;;;;;;;21.70;61.10;;;;;;1598157;73;1144;-70
2022/12/20 00:12:43;;;;;;;;;;;21.70;61.20;;;;;;1597199;74;693;-70
2022/12/20 00:14:46;;;;;;;;;;;21.70;61.30;;;;;;1595425;73;1945;-69
2022/12/20 00:16:47;;;;;;;;;;;21.70;61.30;;;;;;1595195;73;614;-70
2022/12/20 00:18:53;;;;;;;;;;;21.70;61.30;;;;;;1601324;73;708;-70
2022/12/20 00:20:58;;;;;;;;;;;21.70;61.20;;;;;;1595876;73;1149;-71
2022/12/20 00:23:00;;;;;;;;;;;21.70;61.10;;;;;;1597821;73;739;-70
2022/12/20 00:25:02;;;;;;;;;;;21.70;61.20;;;;;;1588128;74;760;-71
2022/12/20 00:27:04;;;;;;;;;;;21.60;61.10;;;;;;1608488;73;762;-71
2022/12/20 00:29:06;;;;;;;;;;;21.70;61.20;;;;;;1597730;73;713;-71
2022/12/20 00:31:09;;;;;;;;;;;21.70;61.20;;;;;;1599218;73;1110;-69
2022/12/20 00:33:11;;;;;;;;;;;21.60;61.20;;;;;;1604440;73;724;-69
2022/12/20 00:35:13;;;;;;;;;;;21.70;61.20;;;;;;1600162;73;1933;-70
2022/12/20 00:37:14;;;;;;;;;;;21.70;61.30;;;;;;1596853;73;725;-70
2022/12/20 00:39:16;;;;;;;;;;;21.70;61.30;;;;;;1599509;73;763;-70
2022/12/20 00:41:19;;;;;;;;;;;21.70;61.30;;;;;;1599515;73;1150;-69
2022/12/20 00:43:21;;;;;;;;;;;21.60;61.20;;;;;;1596985;73;714;-70
2022/12/20 00:45:23;;;;;;;;;;;21.70;61.20;;;;;;1598060;73;797;-70
2022/12/20 00:47:25;;;;;;;;;;;21.70;61.20;;;;;;1599343;73;661;-70
2022/12/20 00:49:27;;;;;;;;;;;21.70;61.20;;;;;;1597461;73;725;-70
2022/12/20 00:51:28;;;;;;;;;;;21.60;61.00;;;;;;1597331;73;1119;-69
2022/12/20 00:53:31;;;;;;;;;;;21.70;61.10;;;;;;1597145;74;1924;-70
2022/12/20 00:55:32;;;;;;;;;;;21.70;61.10;;;;;;1599297;74;713;-71
2022/12/20 00:57:34;;;;;;;;;;;21.60;61.10;;;;;;1595390;74;713;-70
2022/12/20 00:59:36;;;;;;;;;;;21.60;61.20;;;;;;1589885;73;653;-70
2022/12/20 01:01:38;;;;;;;;;;;21.60;61.20;;;;;;1601578;72;1101;-70
2022/12/20 01:03:40;;;;;;;;;;;21.60;61.20;;;;;;1594680;73;586;-70
2022/12/20 01:05:43;;;;;;;;;;;21.60;61.20;;;;;;1599084;73;711;-70
2022/12/20 01:07:45;;;;;;;;;;;21.70;61.30;;;;;;1593510;74;920;-70
2022/12/20 01:09:47;;;;;;;;;;;21.60;61.30;;;;;;1589236;73;1385;-70
2022/12/20 01:11:49;;;;;;;;;;;21.70;61.40;;;;;;1597045;73;738;-70
2022/12/20 01:13:52;;;;;;;;;;;21.80;61.30;;;;;;1597212;74;1930;-71
2022/12/20 01:15:53;;;;;;;;;;;21.70;61.30;;;;;;1599805;74;660;-71
2022/12/20 01:17:56;;;;;;;;;;;21.70;61.30;;;;;;1590460;73;707;-70
2022/12/20 01:19:58;;;;;;;;;;;21.70;61.30;;;;;;1597795;73;1146;-71
2022/12/20 01:22:00;;;;;;;;;;;21.70;61.30;;;;;;1596684;74;779;-69
2022/12/20 01:24:03;;;;;;;;;;;21.80;61.30;;;;;;1588733;74;706;-72
2022/12/20 01:26:07;;;;;;;;;;;21.80;61.20;;;;;;1594692;73;689;-71
2022/12/20 01:28:08;;;;;;;;;;;21.70;61.20;;;;;;1598704;73;1628;-69
2022/12/20 01:30:11;;;;;;;;;;;21.80;61.20;;;;;;1599170;73;1131;-70
2022/12/20 01:32:13;;;;;;;;;;;21.80;61.20;;;;;;1600448;73;905;-70
2022/12/20 01:34:15;;;;;;;;;;;21.80;61.10;;;;;;1599909;73;1929;-70
2022/12/20 01:36:17;;;;;;;;;;;21.80;60.90;;;;;;1597205;73;742;-70
2022/12/20 01:38:19;;;;;;;;;;;21.80;61.10;;;;;;1596306;73;792;-70
2022/12/20 01:40:21;;;;;;;;;;;21.80;61.20;;;;;;1598821;73;1178;-71
2022/12/20 01:42:23;;;;;;;;;;;21.80;61.20;;;;;;1593677;74;940;-70
2022/12/20 01:44:26;;;;;;;;;;;21.70;61.00;;;;;;1599262;74;685;-72
2022/12/20 01:46:29;;;;;;;;;;;21.70;61.00;;;;;;1595681;73;735;-70
2022/12/20 01:48:31;;;;;;;;;;;21.80;61.00;;;;;;1598048;73;786;-69
2022/12/20 01:50:33;;;;;;;;;;;21.70;61.00;;;;;;1603205;73;1201;-70
2022/12/20 01:52:36;;;;;;;;;;;21.70;61.10;;;;;;1591144;73;713;-69
2022/12/20 01:54:39;;;;;;;;;;;21.70;61.20;;;;;;1596598;74;1926;-70
2022/12/20 01:56:40;;;;;;;;;;;21.70;61.40;;;;;;1593251;73;733;-69
2022/12/20 01:58:42;;;;;;;;;;;21.70;61.40;;;;;;1591431;74;669;-70
2022/12/20 02:00:44;;;;;;;;;;;21.70;61.30;;;;;;1598889;73;1138;-71
2022/12/20 02:02:47;;;;;;;;;;;21.70;61.40;;;;;;1593643;73;796;-72
2022/12/20 02:04:48;;;;;;;;;;;21.70;61.40;;;;;;1606121;73;778;-71
2022/12/20 02:06:50;;;;;;;;;;;21.60;61.40;;;;;;1582421;74;1439;-70
2022/12/20 02:08:52;;;;;;;;;;;21.60;61.40;;;;;;1594397;73;715;-69
2022/12/20 02:10:56;;;;;;;;;;;21.60;61.50;;;;;;1599652;73;1107;-70
2022/12/20 02:12:59;;;;;;;;;;;21.60;61.50;;;;;;1588949;73;1974;-70
2022/12/20 02:15:03;;;;;;;;;;;21.60;61.50;;;;;;1599317;74;1932;-73
2022/12/20 02:17:06;;;;;;;;;;;21.60;61.50;;;;;;1597040;73;1051;-70
2022/12/20 02:19:10;;;;;;;;;;;21.60;61.50;;;;;;1596042;73;998;-70
2022/12/20 02:21:22;;;;;;;;;;;21.60;61.60;;;;;;1598138;73;1200;-71
2022/12/20 02:23:44;;;;;;;;;;;21.60;61.50;;;;;;1596204;74;709;-69
2022/12/20 02:26:04;;;;;;;;;;;21.60;61.50;;;;;;1598018;73;1613;-69
2022/12/20 02:28:07;;;;;;;;;;;21.60;61.50;;;;;;1597096;73;716;-69
2022/12/20 02:30:10;;;;;;;;;;;21.60;61.50;;;;;;1589539;73;2007;-69
2022/12/20 02:32:20;;;;;;;;;;;21.60;61.50;;;;;;1606798;73;700;-68
2022/12/20 02:34:23;;;;;;;;;;;21.60;61.60;;;;;;1598224;73;1934;-70
2022/12/20 02:36:25;;;;;;;;;;;21.60;61.50;;;;;;1591470;74;766;-71
2022/12/20 02:38:31;;;;;;;;;;;21.60;61.50;;;;;;1598157;74;782;-70
2022/12/20 02:40:34;;;;;;;;;;;21.60;61.50;;;;;;1595142;74;1171;-71
2022/12/20 02:42:36;;;;;;;;;;;21.60;61.50;;;;;;1592763;73;1675;-71
2022/12/20 02:46:59;;;;;;;;;;;21.50;61.50;;;;;;1592553;73;1630;-68
2022/12/20 02:49:02;;;;;;;;;;;21.60;61.50;;;;;;1597811;74;764;-70
2022/12/20 02:51:05;;;;;;;;;;;21.60;61.60;;;;;;1588653;73;1151;-71
2022/12/20 02:53:06;;;;;;;;;;;21.60;61.50;;;;;;1593469;73;744;-70
2022/12/20 02:55:08;;;;;;;;;;;21.70;61.60;;;;;;1584981;74;1930;-71
2022/12/20 02:57:12;;;;;;;;;;;21.60;61.60;;;;;;1599857;73;717;-71
2022/12/20 02:59:21;;;;;;;;;;;21.60;61.60;;;;;;1600229;73;775;-71
2022/12/20 03:01:24;;;;;;;;;;;21.70;61.70;;;;;;1599025;73;1151;-71
2022/12/20 03:03:26;;;;;;;;;;;21.70;61.60;;;;;;1587954;74;1439;-71
2022/12/20 03:05:28;;;;;;;;;;;21.70;61.50;;;;;;1593085;74;762;-71
2022/12/20 03:07:30;;;;;;;;;;;21.70;61.50;;;;;;1598056;74;718;-71
2022/12/20 03:09:33;;;;;;;;;;;21.80;61.50;;;;;;1561759;75;998;-70
2022/12/20 03:11:35;;;;;;;;;;;21.70;61.50;;;;;;1594725;73;1096;-70
2022/12/20 03:13:37;;;;;;;;;;;21.60;61.30;;;;;;1597019;74;778;-70
2022/12/20 03:15:38;;;;;;;;;;;21.60;61.50;;;;;;1595392;73;1923;-70
2022/12/20 03:17:40;;;;;;;;;;;21.60;61.60;;;;;;1598328;74;695;-71
2022/12/20 03:19:42;;;;;;;;;;;21.60;61.70;;;;;;1596815;74;681;-71
2022/12/20 03:21:44;;;;;;;;;;;21.60;61.70;;;;;;1597995;73;1130;-70
2022/12/20 03:23:46;;;;;;;;;;;21.60;61.70;;;;;;1600054;73;727;-70
2022/12/20 03:25:48;;;;;;;;;;;21.50;61.80;;;;;;1591447;74;749;-68
2022/12/20 03:27:50;;;;;;;;;;;21.60;61.80;;;;;;1597435;73;773;-70
2022/12/20 03:29:52;;;;;;;;;;;21.60;61.80;;;;;;1592684;73;1155;-70
2022/12/20 03:31:53;;;;;;;;;;;21.50;61.80;;;;;;1602991;73;793;-71
2022/12/20 03:33:55;;;;;;;;;;;21.60;61.80;;;;;;1597692;73;717;-70
2022/12/20 03:35:57;;;;;;;;;;;21.60;61.80;;;;;;1598992;74;1934;-71
2022/12/20 03:37:59;;;;;;;;;;;21.60;61.90;;;;;;1595716;74;720;-70
2022/12/20 03:40:01;;;;;;;;;;;21.60;61.90;;;;;;1595455;73;1180;-71
2022/12/20 03:42:03;;;;;;;;;;;21.60;62.00;;;;;;1592738;73;226724;-62
2022/12/20 03:44:05;;;;;;;;;;;21.60;62.10;;;;;;1595476;73;842;-64
2022/12/20 03:46:07;;;;;;;;;;;21.50;62.20;;;;;;1595889;73;757;-63
2022/12/20 03:48:09;;;;;;;;;;;21.50;62.30;;;;;;1596290;73;1179;-62
2022/12/20 03:50:11;;;;;;;;;;;21.50;62.40;;;;;;1621434;72;744;-63
2022/12/20 03:52:12;;;;;;;;;;;21.50;62.40;;;;;;1609774;72;767;-63
2022/12/20 03:54:14;;;;;;;;;;;21.50;62.30;;;;;;1623739;72;739;-63
2022/12/20 03:56:18;;;;;;;;;;;21.50;62.40;;;;;;1616466;72;1945;-63
2022/12/20 03:58:20;;;;;;;;;;;21.50;62.50;;;;;;1611271;72;1604;-62
2022/12/20 04:00:21;;;;;;;;;;;21.50;62.50;;;;;;1608535;72;778;-62
2022/12/20 04:02:23;;;;;;;;;;;21.50;62.50;;;;;;1634308;72;754;-64
2022/12/20 04:04:25;;;;;;;;;;;21.60;62.50;;;;;;1618653;72;739;-64
2022/12/20 04:06:27;;;;;;;;;;;21.60;62.40;;;;;;1616004;72;731;-64
2022/12/20 04:08:29;;;;;;;;;;;21.60;62.10;;;;;;1618757;72;1117;-63
2022/12/20 04:10:31;;;;;;;;;;;21.80;62.00;;;;;;1627482;72;690;-63
2022/12/20 04:12:33;;;;;;;;;;;21.70;61.80;;;;;;1620055;72;725;-63
2022/12/20 04:14:36;;;;;;;;;;;21.70;61.80;;;;;;1611676;72;1924;-64
2022/12/20 04:16:38;;;;;;;;;;;21.70;61.80;;;;;;1619834;72;783;-62
2022/12/20 04:18:39;;;;;;;;;;;21.70;61.80;;;;;;1626231;72;1116;-62
2022/12/20 04:20:41;;;;;;;;;;;21.70;61.80;;;;;;1633130;72;745;-62
2022/12/20 04:22:45;;;;;;;;;;;21.60;61.80;;;;;;1611826;72;758;-63
2022/12/20 04:24:47;;;;;;;;;;;21.60;61.80;;;;;;1614392;72;1002;-63
2022/12/20 04:26:49;;;;;;;;;;;21.70;61.80;;;;;;1615780;72;756;-63
2022/12/20 04:28:51;;;;;;;;;;;21.70;61.80;;;;;;1619822;72;1074;-63
2022/12/20 04:30:53;;;;;;;;;;;21.70;61.80;;;;;;1619419;72;758;-63
2022/12/20 04:32:55;;;;;;;;;;;21.80;61.70;;;;;;1612258;72;805;-63
2022/12/20 04:34:57;;;;;;;;;;;21.70;61.60;;;;;;1613818;72;1932;-63
2022/12/20 04:36:59;;;;;;;;;;;21.70;61.70;;;;;;1621088;72;705;-62
2022/12/20 04:39:01;;;;;;;;;;;21.70;61.90;;;;;;1626353;72;1122;-63
2022/12/20 04:41:02;;;;;;;;;;;21.70;61.90;;;;;;1611452;72;801;-62
2022/12/20 04:43:04;;;;;;;;;;;21.60;61.90;;;;;;1617178;71;1020;-64
2022/12/20 04:45:07;;;;;;;;;;;21.60;62.00;;;;;;1609527;71;713;-62
2022/12/20 04:47:09;;;;;;;;;;;21.60;62.00;;;;;;1619865;72;764;-64
2022/12/20 04:49:11;;;;;;;;;;;21.60;62.00;;;;;;1633167;72;1177;-63
2022/12/20 04:51:12;;;;;;;;;;;21.70;62.10;;;;;;1620667;72;757;-64
2022/12/20 04:55:37;;;;;;;;;;;21.60;62.00;;;;;;1616615;72;1913;-63
2022/12/20 04:57:39;;;;;;;;;;;21.60;62.00;;;;;;1636151;72;717;-63
2022/12/20 04:59:41;;;;;;;;;;;21.60;62.20;;;;;;1617669;71;1125;-61
2022/12/20 05:01:43;;;;;;;;;;;21.70;62.20;;;;;;1616785;72;740;-63
2022/12/20 05:03:45;;;;;;;;;;;21.60;62.10;;;;;;1623429;72;544;-62
2022/12/20 05:05:47;;;;;;;;;;;21.60;62.20;;;;;;1628910;72;632;-62
2022/12/20 05:07:49;;;;;;;;;;;21.60;62.30;;;;;;1617940;72;784;-62
2022/12/20 05:09:51;;;;;;;;;;;21.60;62.30;;;;;;1631626;72;1108;-62
2022/12/20 05:11:53;;;;;;;;;;;21.50;62.40;;;;;;1619049;72;776;-62
2022/12/20 05:13:55;;;;;;;;;;;21.60;62.40;;;;;;1620180;72;923;-62
2022/12/20 05:15:57;;;;;;;;;;;21.60;62.30;;;;;;1628658;72;1940;-63
2022/12/20 05:17:59;;;;;;;;;;;21.60;62.40;;;;;;1644370;72;724;-63
2022/12/20 05:20:01;;;;;;;;;;;21.60;62.50;;;;;;1618025;72;1097;-64
2022/12/20 05:26:42;;;;;;;;;;;21.60;62.60;;;;;;1619760;72;1680;-63
2022/12/20 05:28:44;;;;;;;;;;;21.60;62.50;;;;;;1617360;72;1126;-63
2022/12/20 05:30:46;;;;;;;;;;;21.60;62.50;;;;;;1624342;72;760;-63
2022/12/20 05:32:48;;;;;;;;;;;21.60;62.50;;;;;;1610119;72;831;-62
2022/12/20 05:34:50;;;;;;;;;;;21.50;62.60;;;;;;1612144;72;798;-61
2022/12/20 05:36:52;;;;;;;;;;;21.50;62.60;;;;;;1624685;72;1961;-63
2022/12/20 05:38:53;;;;;;;;;;;21.60;62.60;;;;;;1624169;72;1124;-63
2022/12/20 05:40:55;;;;;;;;;;;21.60;62.70;;;;;;1618622;72;759;-64
2022/12/20 05:42:57;;;;;;;;;;;21.60;62.50;;;;;;1611885;71;807;-63
2022/12/20 05:45:04;;;;;;;;;;;21.60;62.60;;;;;;1623907;71;819;-64
2022/12/20 05:47:03;;;;;;;;;;;21.60;62.50;;;;;;1609900;72;1630;-63
2022/12/20 05:49:05;;;;;;;;;;;21.60;62.50;;;;;;1624190;72;1176;-63
2022/12/20 05:51:06;;;;;;;;;;;21.60;62.40;;;;;;1617096;72;1554;-62
2022/12/20 05:53:08;;;;;;;;;;;21.70;62.40;;;;;;1631074;72;807;-61
2022/12/20 05:55:10;;;;;;;;;;;21.70;62.40;;;;;;1618319;72;1949;-64
2022/12/20 05:57:14;;;;;;;;;;;21.70;62.40;;;;;;1617796;72;718;-64
2022/12/20 05:59:16;;;;;;;;;;;21.70;62.40;;;;;;1613106;72;1608;-64
2022/12/20 06:01:19;;;;;;;;;;;21.70;62.40;;;;;;1609861;71;733;-62
2022/12/20 06:03:20;;;;;;;;;;;21.70;62.40;;;;;;1621699;72;732;-64
2022/12/20 06:05:22;;;;;;;;;;;21.70;62.50;;;;;;1623011;72;743;-63
2022/12/20 06:07:25;;;;;;;;;;;21.80;62.10;;;;;;1622383;72;747;-63
2022/12/20 06:09:27;;;;;;;;;;;21.70;62.20;;;;;;1624715;72;1094;-64
2022/12/20 06:11:29;;;;;;;;;;;21.70;62.00;;;;;;1613913;72;695;-64
2022/12/20 06:13:30;;;;;;;;;;;21.80;61.80;;;;;;1615466;72;738;-64
2022/12/20 06:15:32;;;;;;;;;;;21.80;61.70;;;;;;1632793;71;1937;-63
2022/12/20 06:17:34;;;;;;;;;;;21.70;61.70;;;;;;1627838;72;781;-63
2022/12/20 06:19:36;;;;;;;;;;;21.70;61.50;;;;;;1628680;72;1105;-64
2022/12/20 06:21:38;;;;;;;;;;;21.70;61.40;;;;;;1622055;72;726;-64
2022/12/20 06:23:40;;;;;;;;;;;21.70;61.40;;;;;;1618634;72;927;-64
2022/12/20 06:25:42;;;;;;;;;;;21.70;61.50;;;;;;1616283;72;755;-63
2022/12/20 06:27:44;;;;;;;;;;;21.60;61.50;;;;;;1626278;72;727;-63
2022/12/20 06:29:50;;;;;;;;;;;21.60;61.50;;;;;;1631738;72;1096;-63
2022/12/20 06:31:50;;;;;;;;;;;21.60;61.50;;;;;;1644258;72;1581;-64
2022/12/20 06:33:52;;;;;;;;;;;21.60;61.50;;;;;;1614382;72;738;-64
2022/12/20 06:35:54;;;;;;;;;;;21.60;61.60;;;;;;1606902;71;1918;-64
2022/12/20 06:37:55;;;;;;;;;;;21.70;61.70;;;;;;1600075;72;727;-64
2022/12/20 06:39:58;;;;;;;;;;;21.70;61.80;;;;;;1618197;72;1072;-62
2022/12/20 06:42:00;;;;;;;;;;;21.70;61.70;;;;;;1628121;72;760;-62
2022/12/20 06:44:02;;;;;;;;;;;21.70;61.70;;;;;;1620969;72;796;-61
2022/12/20 06:46:05;;;;;;;;;;;21.70;61.80;;;;;;1620267;71;766;-61
2022/12/20 06:48:07;;;;;;;;;;;21.60;61.80;;;;;;1604168;72;1555;-63
2022/12/20 06:50:08;;;;;;;;;;;21.70;61.80;;;;;;1621369;72;640;-62
2022/12/20 06:52:10;;;;;;;;;;;21.70;61.60;;;;;;1620043;71;654;-62
2022/12/20 06:54:12;;;;;;;;;;;21.80;61.40;;;;;;1606923;72;682;-62
2022/12/20 06:56:14;;;;;;;;;;;21.80;61.30;;;;;;1607028;72;1944;-62
2022/12/20 06:58:17;;;;;;;;;;;21.80;61.20;;;;;;1610066;71;1124;-62
2022/12/20 07:00:19;;;;;;;;;;;21.70;61.20;;;;;;1608743;72;790;-62
2022/12/20 07:02:21;;;;;;;;;;;21.70;61.10;;;;;;1624016;72;778;-62
2022/12/20 07:04:23;;;;;;;;;;;21.80;61.00;;;;;;1603736;71;672;-61
2022/12/20 07:06:26;;;;;;;;;;;21.80;60.80;;;;;;1615183;72;647;-62
2022/12/20 07:08:27;;;;;;;;;;;21.80;60.70;;;;;;1622159;72;1110;-62
2022/12/20 07:10:30;;;;;;;;;;;21.80;60.60;;;;;;1632695;72;776;-63
2022/12/20 07:12:32;;;;;;;;;;;21.80;60.60;;;;;;1607674;72;730;-62
2022/12/20 07:14:34;;;;;;;;;;;21.80;60.50;;;;;;1610569;72;716;-62
2022/12/20 07:16:36;;;;;;;;;;;21.80;60.50;;;;;;1619025;72;1926;-62
2022/12/20 07:18:38;;;;;;;;;;;21.80;60.50;;;;;;1626274;72;1140;-61
2022/12/20 07:20:39;;;;;;;;;;;21.70;60.50;;;;;;1611162;72;814;-62
2022/12/20 07:22:41;;;;;;;;;;;21.80;60.40;;;;;;1615213;72;740;-63
2022/12/20 07:24:43;;;;;;;;;;;21.70;60.50;;;;;;1632710;72;589;-62
2022/12/20 07:26:45;;;;;;;;;;;21.70;60.50;;;;;;1618088;72;735;-62
2022/12/20 07:28:47;;;;;;;;;;;21.70;60.50;;;;;;1616380;72;1126;-61
2022/12/20 07:30:49;;;;;;;;;;;21.70;60.40;;;;;;1622453;72;683;-62
2022/12/20 07:32:51;;;;;;;;;;;21.70;60.40;;;;;;1611080;72;808;-62
2022/12/20 07:34:53;;;;;;;;;;;21.80;60.40;;;;;;1606383;72;812;-62
2022/12/20 07:36:55;;;;;;;;;;;21.70;60.30;;;;;;1614619;72;1962;-62
2022/12/20 07:38:57;;;;;;;;;;;21.70;60.30;;;;;;1624304;72;1126;-62
2022/12/20 07:40:59;;;;;;;;;;;21.70;60.30;;;;;;1616886;72;769;-63
2022/12/20 07:43:01;;;;;;;;;;;21.70;60.40;;;;;;1627443;72;733;-63
2022/12/20 07:45:03;;;;;;;;;;;21.70;60.30;;;;;;1617781;72;1631;-63
2022/12/20 07:47:05;;;;;;;;;;;21.60;60.20;;;;;;1625357;72;790;-62
2022/12/20 07:49:07;;;;;;;;;;;21.70;60.30;;;;;;1611680;72;1300;-63
2022/12/20 07:51:10;;;;;;;;;;;21.60;60.20;;;;;;1619188;72;775;-62
2022/12/20 07:53:12;;;;;;;;;;;21.70;60.30;;;;;;1622167;72;1798;-63
2022/12/20 07:55:14;;;;;;;;;;;21.60;60.20;;;;;;1613235;72;752;-63
2022/12/20 07:57:23;;;;;;;;;;;21.60;60.30;;;;;;1616596;72;1911;-63
2022/12/20 07:59:26;;;;;;;;;;;21.60;60.30;;;;;;1615078;72;1118;-63
2022/12/20 08:01:29;;;;;;;;;;;21.60;60.40;;;;;;1611437;72;721;-62
2022/12/20 08:03:32;;;;;;;;;;;21.60;60.30;;;;;;1627085;72;769;-63
2022/12/20 08:05:34;;;;;;;;;;;21.50;60.40;;;;;;1628177;71;906;-63
2022/12/20 08:07:36;;;;;;;;;;;21.50;60.40;;;;;;1616433;72;757;-63
2022/12/20 08:09:39;;;;;;;;;;;21.50;60.40;;;;;;1611391;72;1102;-63
2022/12/20 08:11:41;;;;;;;;;;;21.50;60.50;;;;;;1611890;72;714;-63
2022/12/20 08:13:43;;;;;;;;;;;21.50;60.50;;;;;;1616232;72;783;-63
2022/12/20 08:15:45;;;;;;;;;;;21.50;60.50;;;;;;1612530;72;693;-63
2022/12/20 08:17:47;;;;;;;;;;;21.50;60.40;;;;;;1618037;72;1938;-62
2022/12/20 08:19:56;;;;;;;;;;;21.40;60.30;;;;;;1632151;72;1092;-63
2022/12/20 08:21:52;;;;;;;;;;;21.40;60.30;;;;;;1609464;72;1680;-62
2022/12/20 08:23:55;;;;;;;;;;;21.30;60.40;;;;;;1623328;72;786;-64
2022/12/20 08:25:58;;;;;;;;;;;21.30;60.40;;;;;;1624437;72;662;-64
2022/12/20 08:28:02;;;;;;;;;;;21.20;60.40;;;;;;1611475;71;760;-63
2022/12/20 08:30:04;;;;;;;;;;;21.10;60.50;;;;;;1615294;72;2013;-63
2022/12/20 08:32:06;;;;;;;;;;;21.20;60.60;;;;;;1626482;72;736;-63
2022/12/20 08:34:08;;;;;;;;;;;21.20;60.70;;;;;;1608141;72;760;-63
2022/12/20 08:36:11;;;;;;;;;;;21.10;60.90;;;;;;1618028;72;1911;-62
2022/12/20 08:38:13;;;;;;;;;;;21.10;60.70;;;;;;1620481;72;1121;-63
2022/12/20 08:40:14;;;;;;;;;;;21.20;60.90;;;;;;1614971;72;1529;-63
2022/12/20 08:42:16;;;;;;;;;;;21.10;60.90;;;;;;1609227;72;788;-62
2022/12/20 08:44:18;;;;;;;;;;;21.10;60.90;;;;;;1614971;71;758;-64
2022/12/20 08:46:20;;;;;;;;;;;21.20;60.80;;;;;;1613011;72;751;-63
2022/12/20 08:48:22;;;;;;;;;;;21.20;60.70;;;;;;1626950;72;1186;-62
2022/12/20 08:50:25;;;;;;;;;;;21.20;60.80;;;;;;1615049;72;758;-63
2022/12/20 08:52:30;;;;;;;;;;;21.20;60.90;;;;;;1625723;72;798;-64
2022/12/20 08:54:32;;;;;;;;;;;21.10;60.80;;;;;;1619663;72;708;-62
2022/12/20 08:56:34;;;;;;;;;;;21.20;60.90;;;;;;1616200;72;1931;-62
2022/12/20 08:58:36;;;;;;;;;;;21.20;60.80;;;;;;1614209;72;1141;-64
2022/12/20 09:00:37;;;;;;;;;;;21.10;60.80;;;;;;1608392;72;746;-63
2022/12/20 09:02:40;;;;;;;;;;;21.10;60.80;;;;;;1629031;72;817;-64
2022/12/20 09:04:43;;;;;;;;;;;21.00;60.80;;;;;;1628891;71;713;-63
2022/12/20 09:06:45;;;;;;;;;;;21.00;60.80;;;;;;1628993;72;759;-62
2022/12/20 09:08:47;;;;;;;;;;;21.10;60.90;;;;;;1627986;72;1144;-62
2022/12/20 09:10:49;;;;;;;;;;;21.00;60.90;;;;;;1607988;72;737;-64
2022/12/20 09:12:50;;;;;;;;;;;21.00;60.90;;;;;;1614428;72;784;-64
2022/12/20 09:14:52;;;;;;;;;;;21.00;60.90;;;;;;1637371;72;848;-62
2022/12/20 09:16:54;;;;;;;;;;;21.00;60.90;;;;;;1608733;72;1967;-63
2022/12/20 09:18:56;;;;;;;;;;;21.00;60.90;;;;;;1623100;72;1114;-63
2022/12/20 09:21:01;;;;;;;;;;;21.00;61.00;;;;;;1633815;72;793;-65
2022/12/20 09:23:03;;;;;;;;;;;21.00;61.00;;;;;;1621013;72;754;-65
2022/12/20 09:25:06;;;;;;;;;;;20.90;60.90;;;;;;1615829;71;877;-65
2022/12/20 09:27:07;;;;;;;;;;;21.00;61.00;;;;;;1622470;72;818;-65
2022/12/20 09:29:09;;;;;;;;;;;20.90;61.00;;;;;;1625134;72;1126;-65
2022/12/20 09:31:12;;;;;;;;;;;20.90;61.10;;;;;;1631574;72;948;-65
2022/12/20 09:33:14;;;;;;;;;;;20.90;61.00;;;;;;1617124;72;743;-65
2022/12/20 09:35:16;;;;;;;;;;;20.90;61.10;;;;;;1616950;72;792;-65
2022/12/20 09:37:18;;;;;;;;;;;20.90;61.00;;;;;;1621926;72;1995;-65
2022/12/20 09:39:20;;;;;;;;;;;20.80;61.00;;;;;;1616323;72;1133;-65
2022/12/20 09:41:36;;;;;;;;;;;20.90;61.20;;;;;;1617405;72;220875;-72
2022/12/20 09:43:39;;;;;;;;;;;20.90;61.10;;;;;;1630538;71;731;-72
2022/12/20 09:45:41;;;;;;;;;;;20.90;61.20;;;;;;1624047;71;726;-73
2022/12/20 09:47:42;;;;;;;;;;;20.90;61.10;;;;;;1627300;71;719;-72
2022/12/20 09:49:45;;;;;;;;;;;20.80;61.00;;;;;;1617647;72;795;-73
2022/12/20 09:52:05;;;;;;;;;;;20.90;61.20;;;;;;1605770;72;1206;-72
2022/12/20 09:54:21;;;;;;;;;;;20.90;61.20;;;;;;1591302;72;697;-73
2022/12/20 09:56:41;;;;;;;;;;;20.80;61.10;;;;;;1614921;72;691;-72
2022/12/20 09:58:50;;;;;;;;;;;20.90;61.20;;;;;;1607971;72;709;-72
2022/12/20 10:00:52;;;;;;;;;;;20.80;61.00;;;;;;1622891;72;978;-73
2022/12/20 10:02:54;;;;;;;;;;;20.80;61.00;;;;;;1587795;72;1061;-72
2022/12/20 10:04:56;;;;;;;;;;;20.90;61.20;;;;;;1616962;72;633;-71
2022/12/20 10:07:16;;;;;;;;;;;20.90;61.10;;;;;;1588308;72;791;-72
2022/12/20 10:09:28;;;;;;;;;;;20.80;61.00;;;;;;1617485;71;649;-72
2022/12/20 10:11:41;;;;;;;;;;;20.90;61.10;;;;;;1614295;73;1124;-73
2022/12/20 10:13:45;;;;;;;;;;;20.80;61.00;;;;;;1614536;73;789;-74
2022/12/20 10:15:49;;;;;;;;;;;20.80;61.00;;;;;;1632916;72;993;-71
2022/12/20 10:17:54;;;;;;;;;;;20.80;61.00;;;;;;1621192;72;1943;-73
2022/12/20 10:20:01;;;;;;;;;;;20.80;60.90;;;;;;1631890;71;656;-73
2022/12/20 10:22:04;;;;;;;;;;;20.80;61.00;;;;;;1622969;71;1218;-73
2022/12/20 10:24:08;;;;;;;;;;;20.90;61.10;;;;;;1599401;72;820;-73
2022/12/20 10:26:10;;;;;;;;;;;20.80;61.00;;;;;;1617516;71;1070;-72
2022/12/20 10:28:14;;;;;;;;;;;20.80;60.90;;;;;;1598697;72;794;-73
2022/12/20 10:30:17;;;;;;;;;;;20.90;61.10;;;;;;1598627;72;697;-75
2022/12/20 10:32:21;;;;;;;;;;;20.80;60.90;;;;;;1615390;72;1503;-73
2022/12/20 10:34:22;;;;;;;;;;;20.90;61.00;;;;;;1609138;72;670;-73
2022/12/20 10:36:29;;;;;;;;;;;20.80;60.90;;;;;;1598949;74;709;-74
2022/12/20 10:38:32;;;;;;;;;;;20.80;60.90;;;;;;1625507;71;1940;-74
2022/12/20 10:40:36;;;;;;;;;;;20.80;60.90;;;;;;1629399;71;1061;-72
2022/12/20 10:42:38;;;;;;;;;;;20.80;60.90;;;;;;1618073;71;1124;-73
2022/12/20 10:44:40;;;;;;;;;;;20.80;60.90;;;;;;1632878;71;769;-73
2022/12/20 10:46:42;;;;;;;;;;;20.80;60.80;;;;;;1635567;71;769;-73
2022/12/20 10:48:45;;;;;;;;;;;20.80;60.90;;;;;;1617665;71;595;-73
2022/12/20 10:50:48;;;;;;;;;;;20.80;60.80;;;;;;1628368;71;704;-73
2022/12/20 10:53:07;;;;;;;;;;;20.80;60.90;;;;;;1626998;71;1111;-73
2022/12/20 10:55:11;;;;;;;;;;;20.80;60.80;;;;;;1623469;72;1072;-72
2022/12/20 10:57:17;;;;;;;;;;;20.80;60.80;;;;;;1599687;72;1924;-72
2022/12/20 10:59:21;;;;;;;;;;;20.80;60.80;;;;;;1624391;72;713;-73
2022/12/20 11:01:24;;;;;;;;;;;20.80;60.70;;;;;;1624075;72;1112;-74
2022/12/20 11:03:27;;;;;;;;;;;20.80;60.60;;;;;;1620106;72;698;-74
2022/12/20 11:05:29;;;;;;;;;;;20.80;60.50;;;;;;1615777;72;686;-73
2022/12/20 11:07:32;;;;;;;;;;;20.80;60.50;;;;;;1628494;72;736;-74
2022/12/20 11:09:34;;;;;;;;;;;20.80;60.50;;;;;;1625005;72;746;-74
2022/12/20 11:11:36;;;;;;;;;;;20.80;60.40;;;;;;1631283;72;1138;-73
2022/12/20 11:13:39;;;;;;;;;;;20.70;60.40;;;;;;1618123;72;661;-72
2022/12/20 11:15:41;;;;;;;;;;;20.80;60.40;;;;;;1628272;72;758;-72
2022/12/20 11:17:45;;;;;;;;;;;20.80;60.40;;;;;;1577184;74;1917;-73
2022/12/20 11:19:51;;;;;;;;;;;20.70;60.40;;;;;;1630070;72;706;-75
2022/12/20 11:22:01;;;;;;;;;;;20.80;60.70;;;;;;1623840;72;1144;-75
2022/12/20 11:24:10;;;;;;;;;;;20.80;60.60;;;;;;1626501;72;774;-74
2022/12/20 11:26:14;;;;;;;;;;;20.80;60.60;;;;;;1632694;72;710;-74
2022/12/20 11:28:23;;;;;;;;;;;20.90;60.60;;;;;;1623148;72;1788;-74
2022/12/20 11:30:36;;;;;;;;;;;20.90;60.50;;;;;;1635259;72;671;-75
2022/12/20 11:32:39;;;;;;;;;;;20.90;60.50;;;;;;1636891;72;1912;-73
2022/12/20 11:34:48;;;;;;;;;;;20.90;60.30;;;;;;1625186;72;574;-74
2022/12/20 11:37:04;;;;;;;;;;;20.90;60.30;;;;;;1597233;72;1059;-72
2022/12/20 11:39:24;;;;;;;;;;;20.90;60.40;;;;;;1626888;72;1938;-74
2022/12/20 11:41:30;;;;;;;;;;;20.90;60.30;;;;;;1633447;72;1128;-75
2022/12/20 11:43:50;;;;;;;;;;;20.90;60.30;;;;;;1630894;72;790;-74
2022/12/20 11:45:54;;;;;;;;;;;20.90;60.30;;;;;;1617799;72;716;-75
2022/12/20 11:48:04;;;;;;;;;;;20.90;60.30;;;;;;1627436;72;657;-74
2022/12/20 11:50:16;;;;;;;;;;;20.90;60.20;;;;;;1572621;72;1050;-74
2022/12/20 11:52:22;;;;;;;;;;;20.90;60.20;;;;;;1615400;72;1187;-72
2022/12/20 11:54:29;;;;;;;;;;;20.90;60.10;;;;;;1619248;72;1089;-74
2022/12/20 11:56:35;;;;;;;;;;;20.90;60.10;;;;;;1623716;72;765;-74
2022/12/20 11:58:45;;;;;;;;;;;20.90;60.10;;;;;;1614390;72;1917;-76
2022/12/20 12:00:51;;;;;;;;;;;20.90;60.00;;;;;;1624082;72;782;-74
2022/12/20 12:02:55;;;;;;;;;;;20.90;60.00;;;;;;1618657;72;1073;-73
2022/12/20 12:04:58;;;;;;;;;;;20.90;60.00;;;;;;1624822;72;943;-72
2022/12/20 12:07:05;;;;;;;;;;;20.90;60.00;;;;;;1629501;72;737;-73
2022/12/20 12:09:14;;;;;;;;;;;20.90;60.00;;;;;;1621971;72;1064;-74
2022/12/20 12:11:32;;;;;;;;;;;20.90;60.00;;;;;;1618514;72;1142;-75
2022/12/20 12:13:35;;;;;;;;;;;20.90;59.90;;;;;;1616020;72;712;-73
2022/12/20 12:15:38;;;;;;;;;;;21.00;59.90;;;;;;1616345;72;713;-74
2022/12/20 12:17:47;;;;;;;;;;;20.90;59.80;;;;;;1624194;72;1928;-72
2022/12/20 12:19:49;;;;;;;;;;;20.90;60.00;;;;;;1630406;72;778;-74
2022/12/20 12:21:56;;;;;;;;;;;20.90;59.90;;;;;;1631369;72;1138;-72
2022/12/20 12:24:11;;;;;;;;;;;20.90;60.00;;;;;;1625473;72;1146;-74